sensor_id;sensor_type;location;lat;lon;timestamp;temperature;humidity
25092;DHT22;13082;52.374;4.946;2023-02-22T00:01:27;8.20;99.90
25092;DHT22;13082;52.374;4.946;2023-02-22T00:04:00;8.20;99.90
25092;DHT22;13082;52.374;4.946;2023-02-22T00:06:27;8.20;99.90
25092;DHT22;13082;52.374;4.946;2023-02-22T00:08:53;8.10;99.90
25092;DHT22;13082;52.374;4.946;2023-02-22T00:11:20;8.20;99.90
25092;DHT22;13082;52.374;4.946;2023-02-22T00:13:46;8.10;99.90
25092;DHT22;13082;52.374;4.946;2023-02-22T00:16:16;8.00;99.90
25092;DHT22;13082;52.374;4.946;2023-02-22T00:18:42;8.00;99.90
25092;DHT22;13082;52.374;4.946;2023-02-22T00:21:10;8.00;99.90
25092;DHT22;13082;52.374;4.946;2023-02-22T00:23:39;7.90;99.90
25092;DHT22;13082;52.374;4.946;2023-02-22T00:26:07;7.90;99.90
25092;DHT22;13082;52.374;4.946;2023-02-22T00:28:35;7.90;99.90
25092;DHT22;13082;52.374;4.946;2023-02-22T00:31:02;7.80;99.90
25092;DHT22;13082;52.374;4.946;2023-02-22T00:33:30;7.80;99.90
25092;DHT22;13082;52.374;4.946;2023-02-22T00:35:56;7.70;99.90
25092;DHT22;13082;52.374;4.946;2023-02-22T00:38:22;7.70;99.90
25092;DHT22;13082;52.374;4.946;2023-02-22T00:40:48;7.70;99.90
25092;DHT22;13082;52.374;4.946;2023-02-22T00:43:14;7.70;99.90
25092;DHT22;13082;52.374;4.946;2023-02-22T00:45:40;7.70;99.90
25092;DHT22;13082;52.374;4.946;2023-02-22T00:48:06;7.70;99.90
25092;DHT22;13082;52.374;4.946;2023-02-22T00:50:34;7.60;99.90
25092;DHT22;13082;52.374;4.946;2023-02-22T00:53:01;7.50;99.90
25092;DHT22;13082;52.374;4.946;2023-02-22T00:55:30;7.50;99.90
25092;DHT22;13082;52.374;4.946;2023-02-22T00:57:57;7.40;99.90
25092;DHT22;13082;52.374;4.946;2023-02-22T01:00:27;7.30;99.90
25092;DHT22;13082;52.374;4.946;2023-02-22T01:02:54;7.30;99.90
25092;DHT22;13082;52.374;4.946;2023-02-22T01:05:24;7.40;99.90
25092;DHT22;13082;52.374;4.946;2023-02-22T01:07:50;7.40;99.90
25092;DHT22;13082;52.374;4.946;2023-02-22T01:10:20;7.30;99.90
25092;DHT22;13082;52.374;4.946;2023-02-22T01:12:47;7.30;99.90
25092;DHT22;13082;52.374;4.946;2023-02-22T01:15:15;7.30;99.90
25092;DHT22;13082;52.374;4.946;2023-02-22T01:17:41;7.20;99.90
25092;DHT22;13082;52.374;4.946;2023-02-22T01:20:09;7.20;99.90
25092;DHT22;13082;52.374;4.946;2023-02-22T01:22:43;7.20;99.90
25092;DHT22;13082;52.374;4.946;2023-02-22T01:25:14;7.10;99.90
25092;DHT22;13082;52.374;4.946;2023-02-22T01:27:40;7.10;99.90
25092;DHT22;13082;52.374;4.946;2023-02-22T01:30:06;7.10;99.90
25092;DHT22;13082;52.374;4.946;2023-02-22T01:32:37;7.10;99.90
25092;DHT22;13082;52.374;4.946;2023-02-22T01:35:12;7.00;99.90
25092;DHT22;13082;52.374;4.946;2023-02-22T01:37:38;7.10;99.90
25092;DHT22;13082;52.374;4.946;2023-02-22T01:40:06;7.10;99.90
25092;DHT22;13082;52.374;4.946;2023-02-22T01:42:32;7.10;99.90
25092;DHT22;13082;52.374;4.946;2023-02-22T01:48:07;7.20;99.90
25092;DHT22;13082;52.374;4.946;2023-02-22T01:53:22;7.00;99.90
25092;DHT22;13082;52.374;4.946;2023-02-22T01:55:50;6.90;99.90
25092;DHT22;13082;52.374;4.946;2023-02-22T01:58:18;6.80;99.90
25092;DHT22;13082;52.374;4.946;2023-02-22T02:00:44;6.80;99.90
25092;DHT22;13082;52.374;4.946;2023-02-22T02:03:14;6.90;99.90
25092;DHT22;13082;52.374;4.946;2023-02-22T02:05:42;6.90;99.90
25092;DHT22;13082;52.374;4.946;2023-02-22T02:08:20;6.90;99.90
25092;DHT22;13082;52.374;4.946;2023-02-22T02:10:48;7.00;99.90
25092;DHT22;13082;52.374;4.946;2023-02-22T02:13:15;7.00;99.90
25092;DHT22;13082;52.374;4.946;2023-02-22T02:15:40;7.00;99.90
25092;DHT22;13082;52.374;4.946;2023-02-22T02:18:09;6.90;99.90
25092;DHT22;13082;52.374;4.946;2023-02-22T02:32:20;6.90;99.90
25092;DHT22;13082;52.374;4.946;2023-02-22T02:37:33;6.90;99.90
25092;DHT22;13082;52.374;4.946;2023-02-22T02:43:06;6.90;99.90
25092;DHT22;13082;52.374;4.946;2023-02-22T02:45:40;6.90;99.90
25092;DHT22;13082;52.374;4.946;2023-02-22T02:48:10;6.80;99.90
25092;DHT22;13082;52.374;4.946;2023-02-22T02:50:41;6.80;99.90
25092;DHT22;13082;52.374;4.946;2023-02-22T02:53:09;6.80;99.90
25092;DHT22;13082;52.374;4.946;2023-02-22T02:55:36;6.80;99.90
25092;DHT22;13082;52.374;4.946;2023-02-22T02:58:06;6.80;99.90
25092;DHT22;13082;52.374;4.946;2023-02-22T03:00:38;6.80;99.90
25092;DHT22;13082;52.374;4.946;2023-02-22T03:08:42;6.70;99.90
25092;DHT22;13082;52.374;4.946;2023-02-22T03:11:15;6.80;99.90
25092;DHT22;13082;52.374;4.946;2023-02-22T03:16:14;6.80;99.90
25092;DHT22;13082;52.374;4.946;2023-02-22T03:21:33;6.70;99.90
25092;DHT22;13082;52.374;4.946;2023-02-22T03:24:05;6.60;99.90
25092;DHT22;13082;52.374;4.946;2023-02-22T03:26:41;6.70;99.90
25092;DHT22;13082;52.374;4.946;2023-02-22T03:29:11;6.60;99.90
25092;DHT22;13082;52.374;4.946;2023-02-22T03:31:43;6.60;99.90
25092;DHT22;13082;52.374;4.946;2023-02-22T03:34:15;6.60;99.90
25092;DHT22;13082;52.374;4.946;2023-02-22T03:36:47;6.60;99.90
25092;DHT22;13082;52.374;4.946;2023-02-22T03:39:17;6.50;99.90
25092;DHT22;13082;52.374;4.946;2023-02-22T03:41:47;6.50;99.90
25092;DHT22;13082;52.374;4.946;2023-02-22T03:44:17;6.50;99.90
25092;DHT22;13082;52.374;4.946;2023-02-22T03:46:45;6.40;99.90
25092;DHT22;13082;52.374;4.946;2023-02-22T03:49:28;6.40;99.90
25092;DHT22;13082;52.374;4.946;2023-02-22T03:51:56;6.40;99.90
25092;DHT22;13082;52.374;4.946;2023-02-22T03:54:22;6.40;99.90
25092;DHT22;13082;52.374;4.946;2023-02-22T03:56:58;6.40;99.90
25092;DHT22;13082;52.374;4.946;2023-02-22T03:59:26;6.50;99.90
25092;DHT22;13082;52.374;4.946;2023-02-22T04:01:56;6.40;99.90
25092;DHT22;13082;52.374;4.946;2023-02-22T04:04:22;6.40;99.90
25092;DHT22;13082;52.374;4.946;2023-02-22T04:06:48;6.40;99.90
25092;DHT22;13082;52.374;4.946;2023-02-22T04:09:15;6.40;99.90
25092;DHT22;13082;52.374;4.946;2023-02-22T04:11:40;6.40;99.90
25092;DHT22;13082;52.374;4.946;2023-02-22T04:14:06;6.20;99.90
25092;DHT22;13082;52.374;4.946;2023-02-22T04:16:31;6.20;99.90
25092;DHT22;13082;52.374;4.946;2023-02-22T04:18:57;6.20;99.90
25092;DHT22;13082;52.374;4.946;2023-02-22T04:21:23;6.10;99.90
25092;DHT22;13082;52.374;4.946;2023-02-22T04:23:48;6.10;99.90
25092;DHT22;13082;52.374;4.946;2023-02-22T04:26:14;6.00;99.90
25092;DHT22;13082;52.374;4.946;2023-02-22T04:28:40;6.00;99.90
25092;DHT22;13082;52.374;4.946;2023-02-22T04:31:05;6.00;99.90
25092;DHT22;13082;52.374;4.946;2023-02-22T04:33:31;6.00;99.90
25092;DHT22;13082;52.374;4.946;2023-02-22T04:35:57;6.00;99.90
25092;DHT22;13082;52.374;4.946;2023-02-22T04:38:24;5.80;99.90
25092;DHT22;13082;52.374;4.946;2023-02-22T04:40:51;5.80;99.90
25092;DHT22;13082;52.374;4.946;2023-02-22T04:43:17;5.70;99.90
25092;DHT22;13082;52.374;4.946;2023-02-22T04:45:43;5.70;99.90
25092;DHT22;13082;52.374;4.946;2023-02-22T04:48:09;5.70;99.90
25092;DHT22;13082;52.374;4.946;2023-02-22T04:50:34;5.70;99.90
25092;DHT22;13082;52.374;4.946;2023-02-22T04:53:00;5.70;99.90
25092;DHT22;13082;52.374;4.946;2023-02-22T04:55:26;5.70;99.90
25092;DHT22;13082;52.374;4.946;2023-02-22T04:57:53;5.70;99.90
25092;DHT22;13082;52.374;4.946;2023-02-22T05:00:19;5.70;99.90
25092;DHT22;13082;52.374;4.946;2023-02-22T05:02:46;5.70;99.90
25092;DHT22;13082;52.374;4.946;2023-02-22T05:05:14;5.70;99.90
25092;DHT22;13082;52.374;4.946;2023-02-22T05:07:39;5.70;99.90
25092;DHT22;13082;52.374;4.946;2023-02-22T05:10:05;5.60;99.90
25092;DHT22;13082;52.374;4.946;2023-02-22T05:12:31;5.60;99.90
25092;DHT22;13082;52.374;4.946;2023-02-22T05:14:56;5.60;99.90
25092;DHT22;13082;52.374;4.946;2023-02-22T05:17:22;5.60;99.90
25092;DHT22;13082;52.374;4.946;2023-02-22T05:19:48;5.60;99.90
25092;DHT22;13082;52.374;4.946;2023-02-22T05:22:13;5.60;99.90
25092;DHT22;13082;52.374;4.946;2023-02-22T05:24:39;5.60;99.90
25092;DHT22;13082;52.374;4.946;2023-02-22T05:27:04;5.60;99.90
25092;DHT22;13082;52.374;4.946;2023-02-22T05:29:30;5.60;99.90
25092;DHT22;13082;52.374;4.946;2023-02-22T05:31:55;5.70;99.90
25092;DHT22;13082;52.374;4.946;2023-02-22T05:34:22;5.70;99.90
25092;DHT22;13082;52.374;4.946;2023-02-22T05:36:48;5.70;99.90
25092;DHT22;13082;52.374;4.946;2023-02-22T05:39:13;5.70;99.90
25092;DHT22;13082;52.374;4.946;2023-02-22T05:41:39;5.70;99.90
25092;DHT22;13082;52.374;4.946;2023-02-22T05:44:05;5.70;99.90
25092;DHT22;13082;52.374;4.946;2023-02-22T05:46:31;5.60;99.90
25092;DHT22;13082;52.374;4.946;2023-02-22T05:48:56;5.60;99.90
25092;DHT22;13082;52.374;4.946;2023-02-22T05:51:22;5.60;99.90
25092;DHT22;13082;52.374;4.946;2023-02-22T05:53:48;5.60;99.90
25092;DHT22;13082;52.374;4.946;2023-02-22T05:56:23;5.60;99.90
25092;DHT22;13082;52.374;4.946;2023-02-22T05:58:49;5.50;99.90
25092;DHT22;13082;52.374;4.946;2023-02-22T06:01:15;5.50;99.90
25092;DHT22;13082;52.374;4.946;2023-02-22T06:03:40;5.50;99.90
25092;DHT22;13082;52.374;4.946;2023-02-22T06:06:06;5.50;99.90
25092;DHT22;13082;52.374;4.946;2023-02-22T06:08:32;5.60;99.90
25092;DHT22;13082;52.374;4.946;2023-02-22T06:10:57;5.60;99.90
25092;DHT22;13082;52.374;4.946;2023-02-22T06:13:23;5.60;99.90
25092;DHT22;13082;52.374;4.946;2023-02-22T06:15:49;5.60;99.90
25092;DHT22;13082;52.374;4.946;2023-02-22T06:18:14;5.60;99.90
25092;DHT22;13082;52.374;4.946;2023-02-22T06:20:40;5.70;99.90
25092;DHT22;13082;52.374;4.946;2023-02-22T06:23:05;5.70;99.90
25092;DHT22;13082;52.374;4.946;2023-02-22T06:25:31;5.70;99.90
25092;DHT22;13082;52.374;4.946;2023-02-22T06:27:58;5.70;99.90
25092;DHT22;13082;52.374;4.946;2023-02-22T06:30:25;5.70;99.90
25092;DHT22;13082;52.374;4.946;2023-02-22T06:32:51;5.80;99.90
25092;DHT22;13082;52.374;4.946;2023-02-22T06:35:17;5.80;99.90
25092;DHT22;13082;52.374;4.946;2023-02-22T06:37:43;5.80;99.90
25092;DHT22;13082;52.374;4.946;2023-02-22T06:40:10;5.70;99.90
25092;DHT22;13082;52.374;4.946;2023-02-22T06:42:36;5.70;99.90
25092;DHT22;13082;52.374;4.946;2023-02-22T06:45:02;5.70;99.90
25092;DHT22;13082;52.374;4.946;2023-02-22T06:47:28;5.70;99.90
25092;DHT22;13082;52.374;4.946;2023-02-22T06:49:54;5.70;99.90
25092;DHT22;13082;52.374;4.946;2023-02-22T06:52:20;5.60;99.90
25092;DHT22;13082;52.374;4.946;2023-02-22T06:54:47;5.70;99.90
25092;DHT22;13082;52.374;4.946;2023-02-22T06:57:13;5.60;99.90
25092;DHT22;13082;52.374;4.946;2023-02-22T06:59:38;5.70;99.90
25092;DHT22;13082;52.374;4.946;2023-02-22T07:02:05;5.70;99.90
25092;DHT22;13082;52.374;4.946;2023-02-22T07:04:30;5.70;99.90
25092;DHT22;13082;52.374;4.946;2023-02-22T07:06:56;5.70;99.90
25092;DHT22;13082;52.374;4.946;2023-02-22T07:09:21;5.60;99.90
25092;DHT22;13082;52.374;4.946;2023-02-22T07:11:47;5.60;99.90
25092;DHT22;13082;52.374;4.946;2023-02-22T07:14:15;5.70;99.90
25092;DHT22;13082;52.374;4.946;2023-02-22T07:16:41;5.70;99.90
25092;DHT22;13082;52.374;4.946;2023-02-22T07:19:06;5.70;99.90
25092;DHT22;13082;52.374;4.946;2023-02-22T07:21:32;5.80;99.90
25092;DHT22;13082;52.374;4.946;2023-02-22T07:23:58;5.70;99.90
25092;DHT22;13082;52.374;4.946;2023-02-22T07:26:24;5.70;99.90
25092;DHT22;13082;52.374;4.946;2023-02-22T07:28:50;5.70;99.90
25092;DHT22;13082;52.374;4.946;2023-02-22T07:31:16;5.70;99.90
25092;DHT22;13082;52.374;4.946;2023-02-22T07:33:44;5.70;99.90
25092;DHT22;13082;52.374;4.946;2023-02-22T07:36:10;5.80;99.90
25092;DHT22;13082;52.374;4.946;2023-02-22T07:38:38;5.80;99.90
25092;DHT22;13082;52.374;4.946;2023-02-22T07:41:03;5.80;99.90
25092;DHT22;13082;52.374;4.946;2023-02-22T07:43:29;5.80;99.90
25092;DHT22;13082;52.374;4.946;2023-02-22T07:45:57;5.80;99.90
25092;DHT22;13082;52.374;4.946;2023-02-22T07:48:25;5.70;99.90
25092;DHT22;13082;52.374;4.946;2023-02-22T07:50:51;5.70;99.90
25092;DHT22;13082;52.374;4.946;2023-02-22T07:53:20;5.70;99.90
25092;DHT22;13082;52.374;4.946;2023-02-22T07:55:46;5.70;99.90
25092;DHT22;13082;52.374;4.946;2023-02-22T07:58:16;5.70;99.90
25092;DHT22;13082;52.374;4.946;2023-02-22T08:00:42;5.80;99.90
25092;DHT22;13082;52.374;4.946;2023-02-22T08:03:14;5.70;99.90
25092;DHT22;13082;52.374;4.946;2023-02-22T08:05:41;5.70;99.90
25092;DHT22;13082;52.374;4.946;2023-02-22T08:08:08;5.70;99.90
25092;DHT22;13082;52.374;4.946;2023-02-22T08:10:35;5.70;99.90
25092;DHT22;13082;52.374;4.946;2023-02-22T08:13:02;5.80;99.90
25092;DHT22;13082;52.374;4.946;2023-02-22T08:15:30;5.70;99.90
25092;DHT22;13082;52.374;4.946;2023-02-22T08:17:58;5.70;99.90
25092;DHT22;13082;52.374;4.946;2023-02-22T08:20:24;5.70;99.90
25092;DHT22;13082;52.374;4.946;2023-02-22T08:22:50;5.70;99.90
25092;DHT22;13082;52.374;4.946;2023-02-22T08:25:18;5.80;99.90
25092;DHT22;13082;52.374;4.946;2023-02-22T08:27:45;5.90;99.90
25092;DHT22;13082;52.374;4.946;2023-02-22T08:30:20;5.90;99.90
25092;DHT22;13082;52.374;4.946;2023-02-22T08:32:47;5.90;99.90
25092;DHT22;13082;52.374;4.946;2023-02-22T08:35:14;5.90;99.90
25092;DHT22;13082;52.374;4.946;2023-02-22T08:37:48;5.80;99.90
25092;DHT22;13082;52.374;4.946;2023-02-22T08:40:17;5.90;99.90
25092;DHT22;13082;52.374;4.946;2023-02-22T08:42:43;5.90;99.90
25092;DHT22;13082;52.374;4.946;2023-02-22T08:45:10;5.90;99.90
25092;DHT22;13082;52.374;4.946;2023-02-22T08:47:35;5.90;99.90
25092;DHT22;13082;52.374;4.946;2023-02-22T08:50:01;6.00;99.90
25092;DHT22;13082;52.374;4.946;2023-02-22T08:52:27;6.00;99.90
25092;DHT22;13082;52.374;4.946;2023-02-22T08:54:53;6.10;99.90
25092;DHT22;13082;52.374;4.946;2023-02-22T08:57:20;6.00;99.90
25092;DHT22;13082;52.374;4.946;2023-02-22T08:59:46;6.00;99.90
25092;DHT22;13082;52.374;4.946;2023-02-22T09:02:16;6.10;99.90
25092;DHT22;13082;52.374;4.946;2023-02-22T09:04:43;6.00;99.90
25092;DHT22;13082;52.374;4.946;2023-02-22T09:07:09;6.00;99.90
25092;DHT22;13082;52.374;4.946;2023-02-22T09:09:34;6.10;99.90
25092;DHT22;13082;52.374;4.946;2023-02-22T09:12:01;6.10;99.90
25092;DHT22;13082;52.374;4.946;2023-02-22T09:14:26;6.10;99.90
25092;DHT22;13082;52.374;4.946;2023-02-22T09:16:52;6.10;99.90
25092;DHT22;13082;52.374;4.946;2023-02-22T09:19:18;6.10;99.90
25092;DHT22;13082;52.374;4.946;2023-02-22T09:21:43;6.20;99.90
25092;DHT22;13082;52.374;4.946;2023-02-22T09:24:09;6.20;99.90
25092;DHT22;13082;52.374;4.946;2023-02-22T09:26:36;6.20;99.90
25092;DHT22;13082;52.374;4.946;2023-02-22T09:29:08;6.20;99.90
25092;DHT22;13082;52.374;4.946;2023-02-22T09:31:38;6.30;99.90
25092;DHT22;13082;52.374;4.946;2023-02-22T09:34:05;6.30;99.90
25092;DHT22;13082;52.374;4.946;2023-02-22T09:36:42;6.30;99.90
25092;DHT22;13082;52.374;4.946;2023-02-22T09:39:08;6.30;99.90
25092;DHT22;13082;52.374;4.946;2023-02-22T09:41:55;6.30;99.90
25092;DHT22;13082;52.374;4.946;2023-02-22T09:47:12;6.40;99.90
25092;DHT22;13082;52.374;4.946;2023-02-22T09:49:59;6.40;99.90
25092;DHT22;13082;52.374;4.946;2023-02-22T09:52:34;6.40;99.90
25092;DHT22;13082;52.374;4.946;2023-02-22T09:57:57;6.40;99.90
25092;DHT22;13082;52.374;4.946;2023-02-22T10:00:32;6.40;99.90
25092;DHT22;13082;52.374;4.946;2023-02-22T10:03:26;6.50;99.90
25092;DHT22;13082;52.374;4.946;2023-02-22T10:06:01;6.50;99.90
25092;DHT22;13082;52.374;4.946;2023-02-22T10:08:31;6.60;99.90
25092;DHT22;13082;52.374;4.946;2023-02-22T10:14:25;6.70;99.90
25092;DHT22;13082;52.374;4.946;2023-02-22T10:25:29;6.90;99.90
25092;DHT22;13082;52.374;4.946;2023-02-22T10:30:34;7.10;99.90
25092;DHT22;13082;52.374;4.946;2023-02-22T10:33:16;7.10;99.90
25092;DHT22;13082;52.374;4.946;2023-02-22T10:35:44;7.20;99.90
25092;DHT22;13082;52.374;4.946;2023-02-22T10:38:26;7.20;99.90
25092;DHT22;13082;52.374;4.946;2023-02-22T10:43:36;7.40;99.90
25092;DHT22;13082;52.374;4.946;2023-02-22T10:46:04;7.60;99.90
25092;DHT22;13082;52.374;4.946;2023-02-22T10:48:35;7.60;99.90
25092;DHT22;13082;52.374;4.946;2023-02-22T10:51:04;7.70;99.90
25092;DHT22;13082;52.374;4.946;2023-02-22T10:53:31;7.70;99.90
25092;DHT22;13082;52.374;4.946;2023-02-22T10:56:17;7.70;99.90
25092;DHT22;13082;52.374;4.946;2023-02-22T11:04:12;7.80;99.90
25092;DHT22;13082;52.374;4.946;2023-02-22T11:06:41;7.90;99.90
25092;DHT22;13082;52.374;4.946;2023-02-22T11:11:39;7.90;99.90
25092;DHT22;13082;52.374;4.946;2023-02-22T11:14:05;8.00;99.90
25092;DHT22;13082;52.374;4.946;2023-02-22T11:16:41;8.10;99.90
25092;DHT22;13082;52.374;4.946;2023-02-22T11:19:23;8.20;99.90
25092;DHT22;13082;52.374;4.946;2023-02-22T11:22:19;8.30;99.90
25092;DHT22;13082;52.374;4.946;2023-02-22T11:24:54;8.30;99.90
25092;DHT22;13082;52.374;4.946;2023-02-22T11:27:32;8.40;99.90
25092;DHT22;13082;52.374;4.946;2023-02-22T11:30:16;8.40;99.90
25092;DHT22;13082;52.374;4.946;2023-02-22T11:32:51;8.40;99.90
25092;DHT22;13082;52.374;4.946;2023-02-22T11:35:29;8.40;99.90
25092;DHT22;13082;52.374;4.946;2023-02-22T11:38:25;8.40;99.90
25092;DHT22;13082;52.374;4.946;2023-02-22T11:41:10;8.50;99.90
25092;DHT22;13082;52.374;4.946;2023-02-22T11:43:39;8.60;99.90
25092;DHT22;13082;52.374;4.946;2023-02-22T11:46:18;8.80;99.90
25092;DHT22;13082;52.374;4.946;2023-02-22T11:48:57;8.80;99.90
25092;DHT22;13082;52.374;4.946;2023-02-22T11:51:36;8.90;99.90
25092;DHT22;13082;52.374;4.946;2023-02-22T12:07:54;9.10;99.90
25092;DHT22;13082;52.374;4.946;2023-02-22T12:21:36;9.00;99.90
25092;DHT22;13082;52.374;4.946;2023-02-22T12:24:06;9.00;99.90
25092;DHT22;13082;52.374;4.946;2023-02-22T12:26:41;9.00;99.90
25092;DHT22;13082;52.374;4.946;2023-02-22T12:32:30;9.00;99.90
25092;DHT22;13082;52.374;4.946;2023-02-22T12:35:21;9.10;99.90
25092;DHT22;13082;52.374;4.946;2023-02-22T12:40:53;9.20;99.90
25092;DHT22;13082;52.374;4.946;2023-02-22T12:43:32;9.30;99.90
25092;DHT22;13082;52.374;4.946;2023-02-22T12:46:12;9.40;99.90
25092;DHT22;13082;52.374;4.946;2023-02-22T12:51:26;9.40;99.90
25092;DHT22;13082;52.374;4.946;2023-02-22T12:54:04;9.40;99.90
25092;DHT22;13082;52.374;4.946;2023-02-22T13:01:44;9.40;99.90
25092;DHT22;13082;52.374;4.946;2023-02-22T13:04:10;9.40;99.90
25092;DHT22;13082;52.374;4.946;2023-02-22T13:06:41;9.40;99.90
25092;DHT22;13082;52.374;4.946;2023-02-22T13:14:46;9.40;99.90
25092;DHT22;13082;52.374;4.946;2023-02-22T13:17:23;9.40;99.90
25092;DHT22;13082;52.374;4.946;2023-02-22T13:19:58;9.40;99.90
25092;DHT22;13082;52.374;4.946;2023-02-22T13:22:49;9.40;99.90
25092;DHT22;13082;52.374;4.946;2023-02-22T13:28:28;9.50;99.90
25092;DHT22;13082;52.374;4.946;2023-02-22T13:31:06;9.50;99.90
25092;DHT22;13082;52.374;4.946;2023-02-22T13:36:21;9.50;99.90
25092;DHT22;13082;52.374;4.946;2023-02-22T13:47:17;9.50;99.90
25092;DHT22;13082;52.374;4.946;2023-02-22T13:52:31;9.60;99.90
25092;DHT22;13082;52.374;4.946;2023-02-22T13:55:00;9.60;99.90
25092;DHT22;13082;52.374;4.946;2023-02-22T13:57:30;9.60;99.90
25092;DHT22;13082;52.374;4.946;2023-02-22T14:10:57;9.60;99.90
25092;DHT22;13082;52.374;4.946;2023-02-22T14:13:28;9.60;99.90
25092;DHT22;13082;52.374;4.946;2023-02-22T14:18:43;9.60;99.90
25092;DHT22;13082;52.374;4.946;2023-02-22T14:21:22;9.60;99.90
25092;DHT22;13082;52.374;4.946;2023-02-22T14:23:51;9.60;99.90
25092;DHT22;13082;52.374;4.946;2023-02-22T14:26:38;9.60;99.90
25092;DHT22;13082;52.374;4.946;2023-02-22T14:31:59;9.70;99.90
25092;DHT22;13082;52.374;4.946;2023-02-22T14:44:59;9.60;99.90
25092;DHT22;13082;52.374;4.946;2023-02-22T14:47:42;9.60;99.90
25092;DHT22;13082;52.374;4.946;2023-02-22T14:50:24;9.70;99.90
25092;DHT22;13082;52.374;4.946;2023-02-22T14:53:11;9.70;99.90
25092;DHT22;13082;52.374;4.946;2023-02-22T14:55:46;9.70;99.90
25092;DHT22;13082;52.374;4.946;2023-02-22T14:58:22;9.60;99.90
25092;DHT22;13082;52.374;4.946;2023-02-22T15:00:51;9.60;99.90
25092;DHT22;13082;52.374;4.946;2023-02-22T15:05:47;9.60;99.90
25092;DHT22;13082;52.374;4.946;2023-02-22T15:08:15;9.70;99.90
25092;DHT22;13082;52.374;4.946;2023-02-22T15:10:47;9.70;99.90
25092;DHT22;13082;52.374;4.946;2023-02-22T15:13:28;9.70;99.90
25092;DHT22;13082;52.374;4.946;2023-02-22T15:16:06;9.60;99.90
25092;DHT22;13082;52.374;4.946;2023-02-22T15:19:12;9.60;99.90
25092;DHT22;13082;52.374;4.946;2023-02-22T15:21:44;9.60;99.90
25092;DHT22;13082;52.374;4.946;2023-02-22T15:24:26;9.60;99.90
25092;DHT22;13082;52.374;4.946;2023-02-22T15:26:52;9.60;99.90
25092;DHT22;13082;52.374;4.946;2023-02-22T15:29:35;9.60;99.90
25092;DHT22;13082;52.374;4.946;2023-02-22T15:32:01;9.50;99.90
25092;DHT22;13082;52.374;4.946;2023-02-22T15:34:29;9.50;99.90
25092;DHT22;13082;52.374;4.946;2023-02-22T15:36:58;9.50;99.90
25092;DHT22;13082;52.374;4.946;2023-02-22T15:39:30;9.50;99.90
25092;DHT22;13082;52.374;4.946;2023-02-22T15:42:15;9.50;99.90
25092;DHT22;13082;52.374;4.946;2023-02-22T15:44:46;9.40;99.90
25092;DHT22;13082;52.374;4.946;2023-02-22T15:47:21;9.40;99.90
25092;DHT22;13082;52.374;4.946;2023-02-22T15:50:13;9.50;99.90
25092;DHT22;13082;52.374;4.946;2023-02-22T15:52:51;9.40;99.90
25092;DHT22;13082;52.374;4.946;2023-02-22T15:55:19;9.40;99.90
25092;DHT22;13082;52.374;4.946;2023-02-22T15:57:46;9.40;99.90
25092;DHT22;13082;52.374;4.946;2023-02-22T16:00:27;9.40;99.90
25092;DHT22;13082;52.374;4.946;2023-02-22T16:03:04;9.40;99.90
25092;DHT22;13082;52.374;4.946;2023-02-22T16:05:39;9.40;99.90
25092;DHT22;13082;52.374;4.946;2023-02-22T16:08:23;9.40;99.90
25092;DHT22;13082;52.374;4.946;2023-02-22T16:11:08;9.40;99.90
25092;DHT22;13082;52.374;4.946;2023-02-22T16:13:39;9.40;99.90
25092;DHT22;13082;52.374;4.946;2023-02-22T16:16:21;9.40;99.90
25092;DHT22;13082;52.374;4.946;2023-02-22T16:18:49;9.40;99.90
25092;DHT22;13082;52.374;4.946;2023-02-22T16:21:18;9.40;99.90
25092;DHT22;13082;52.374;4.946;2023-02-22T16:23:50;9.40;99.90
25092;DHT22;13082;52.374;4.946;2023-02-22T16:26:25;9.30;99.90
25092;DHT22;13082;52.374;4.946;2023-02-22T16:29:02;9.40;99.90
25092;DHT22;13082;52.374;4.946;2023-02-22T16:31:34;9.40;99.90
25092;DHT22;13082;52.374;4.946;2023-02-22T16:34:02;9.40;99.90
25092;DHT22;13082;52.374;4.946;2023-02-22T16:36:43;9.40;99.90
25092;DHT22;13082;52.374;4.946;2023-02-22T16:39:29;9.40;99.90
25092;DHT22;13082;52.374;4.946;2023-02-22T16:41:58;9.40;99.90
25092;DHT22;13082;52.374;4.946;2023-02-22T16:44:24;9.50;99.90
25092;DHT22;13082;52.374;4.946;2023-02-22T16:46:51;9.40;99.90
25092;DHT22;13082;52.374;4.946;2023-02-22T16:49:17;9.50;99.90
25092;DHT22;13082;52.374;4.946;2023-02-22T16:51:47;9.50;99.90
25092;DHT22;13082;52.374;4.946;2023-02-22T16:54:20;9.50;99.90
25092;DHT22;13082;52.374;4.946;2023-02-22T16:56:47;9.50;99.90
25092;DHT22;13082;52.374;4.946;2023-02-22T16:59:14;9.50;99.90
25092;DHT22;13082;52.374;4.946;2023-02-22T17:01:41;9.50;99.90
25092;DHT22;13082;52.374;4.946;2023-02-22T17:04:13;9.50;99.90
25092;DHT22;13082;52.374;4.946;2023-02-22T17:06:40;9.60;99.90
25092;DHT22;13082;52.374;4.946;2023-02-22T17:09:05;9.60;99.90
25092;DHT22;13082;52.374;4.946;2023-02-22T17:11:31;9.60;99.90
25092;DHT22;13082;52.374;4.946;2023-02-22T17:13:57;9.70;99.90
25092;DHT22;13082;52.374;4.946;2023-02-22T17:16:23;9.70;99.90
25092;DHT22;13082;52.374;4.946;2023-02-22T17:18:49;9.60;99.90
25092;DHT22;13082;52.374;4.946;2023-02-22T17:21:15;9.70;99.90
25092;DHT22;13082;52.374;4.946;2023-02-22T17:23:44;9.60;99.90
25092;DHT22;13082;52.374;4.946;2023-02-22T17:26:13;9.60;99.90
25092;DHT22;13082;52.374;4.946;2023-02-22T17:28:39;9.60;99.90
25092;DHT22;13082;52.374;4.946;2023-02-22T17:31:05;9.60;99.90
25092;DHT22;13082;52.374;4.946;2023-02-22T17:33:34;9.50;99.90
25092;DHT22;13082;52.374;4.946;2023-02-22T17:36:02;9.50;99.90
25092;DHT22;13082;52.374;4.946;2023-02-22T17:38:30;9.50;99.90
25092;DHT22;13082;52.374;4.946;2023-02-22T17:40:57;9.40;99.90
25092;DHT22;13082;52.374;4.946;2023-02-22T17:43:24;9.40;99.90
25092;DHT22;13082;52.374;4.946;2023-02-22T17:45:52;9.40;99.90
25092;DHT22;13082;52.374;4.946;2023-02-22T17:48:18;9.40;99.90
25092;DHT22;13082;52.374;4.946;2023-02-22T17:50:45;9.50;99.90
25092;DHT22;13082;52.374;4.946;2023-02-22T17:53:11;9.50;99.90
25092;DHT22;13082;52.374;4.946;2023-02-22T17:55:38;9.40;99.90
25092;DHT22;13082;52.374;4.946;2023-02-22T17:58:05;9.40;99.90
25092;DHT22;13082;52.374;4.946;2023-02-22T18:00:34;9.30;99.90
25092;DHT22;13082;52.374;4.946;2023-02-22T18:03:06;9.30;99.90
25092;DHT22;13082;52.374;4.946;2023-02-22T18:05:37;9.30;99.90
25092;DHT22;13082;52.374;4.946;2023-02-22T18:08:03;9.30;99.90
25092;DHT22;13082;52.374;4.946;2023-02-22T18:10:28;9.20;99.90
25092;DHT22;13082;52.374;4.946;2023-02-22T18:12:54;9.20;99.90
25092;DHT22;13082;52.374;4.946;2023-02-22T18:15:21;9.20;99.90
25092;DHT22;13082;52.374;4.946;2023-02-22T18:17:47;9.30;99.90
25092;DHT22;13082;52.374;4.946;2023-02-22T18:20:15;9.30;99.90
25092;DHT22;13082;52.374;4.946;2023-02-22T18:22:58;9.30;99.90
25092;DHT22;13082;52.374;4.946;2023-02-22T18:25:24;9.20;99.90
25092;DHT22;13082;52.374;4.946;2023-02-22T18:27:51;9.20;99.90
25092;DHT22;13082;52.374;4.946;2023-02-22T18:30:18;9.20;99.90
25092;DHT22;13082;52.374;4.946;2023-02-22T18:32:44;9.10;99.90
25092;DHT22;13082;52.374;4.946;2023-02-22T18:35:11;9.20;99.90
25092;DHT22;13082;52.374;4.946;2023-02-22T18:37:37;9.20;99.90